Aeroporto :
LOGIN :

Iscrizione | Disclaimer

   EN    FR    IT 

 










Sommario :    VFR   VFR Marginale   IFR   IFR Intensivo   IFR Molto Intensivo
Visibilità : 
Base nubi : 
>= 8 km
>= 3000ft
5 / 8 km
1000 / 3000 ft
1500m / 5 km
500 / 1000 ft
800 / 1500m
200 / 500 ft
< 800m
< 200 ft
Simboli :   Temporali  Nebbia  Neve Forte  Precipitazioni Forti  Vento > 20 kt
SIGMETs :   Varie  Temporali  Ghiacco  Turbolenza  Onda orograficha  Ceneri Vulcaniche






- Altitudine del aeroporto : 9 ft
- Codice IATA : MIR


DTMB - Habib Bourguliba Int. Monastir

ULTIMO METAR :
  • 111230Z 09014KT CAVOK 29/20 Q1015

METARs OBSOLETI :
  • 111200Z 09012KT CAVOK 30/20 Q1015
  • 111130Z 09011KT CAVOK 30/20 Q1016
  • 111100Z 08010KT CAVOK 30/20 Q1016
  • 111030Z 09010KT CAVOK 29/19 Q1016
  • 111000Z 09010KT CAVOK 29/19 Q1016

TAF TAF DTMB
Valido dal 11 a 12 ore il 12 a 12 ore UTC


111100Z 1112/1212 09012KT CAVOK
BECMG 1121/1123 17003KT
BECMG 1210/1212 06010KT



MetMap, La meteo Aeronautica in un colpo d'occhio ! - Copyright ORBIFLY Dicembre 2007 - Disclaimer

ORBIFLY MET'MAP TEAM :

Programmazione e sviluppo : Alexandra Zaïnal
Concezione : Baudouin d'Aumeries
Aiuto per la programmazione : Marc-Olivier Méhu
Supporto tecnico e logistico : Manuel Goepfert
Aiuto per la traduzione : Arnaldo La Scala

Contatto : metmap@orbifly.com




FONTI E CREDITI :

   NOAA